Latest Weather Observations for Moorabbin Airport

IDV60801

Issued at 6:32 pm EST Friday 28 July 2017 (issued every 30 minutes, with the page automatically refreshed every 10 minutes)

About weather observations | Map of weather stations | Latest weather observations for VIC | Other Formats
Station Details ID: 086077 Name: MOORABBIN AIRPORT Lat: -37.98 Lon: 145.10 Height: 12.1 m
Data from the previous 72 hours. | See also: Recent months at Moorabbin Airport
Date/Time
EST
Temp
°C
App
Temp
°C
Dew
Point
°C
Rel
Hum
%
Delta-T
°C
Wind Press
QNH
hPa
Press
MSL
hPa
Rain since
9am
mm
Dir  Spd
km/h
Gust
km/h
Spd
kts
Gust
kts
28/06:30pm 9.2 6.3 4.6 73 2.0 N 9 11 5 6 1019.2 1019.3 0.0
28/06:00pm 9.7 6.8 4.7 71 2.2 N 9 9 5 5 1019.2 1019.3 0.0
28/05:30pm 10.9 9.6 3.9 62 3.1 CALM 0 0 0 0 1019.3 1019.4 0.0
28/05:00pm 11.9 9.5 4.2 59 3.5 WNW 6 9 3 5 1019.4 1019.5 0.0
28/04:30pm 12.2 9.6 4.2 58 3.6 W 7 9 4 5 1019.4 1019.5 0.0
28/04:00pm 13.3 10.0 4.7 56 3.9 WSW 11 15 6 8 1019.4 1019.5 0.0
28/03:30pm 13.3 9.7 5.0 57 3.8 WSW 13 19 7 10 1019.1 1019.2 0.0
28/03:00pm 13.1 9.1 4.8 57 3.8 W 15 20 8 11 1019.3 1019.4 0.0
28/02:30pm 13.1 8.3 4.5 56 3.9 W 19 26 10 14 1019.1 1019.2 0.0
28/02:00pm 13.8 10.0 5.7 58 3.8 WSW 15 20 8 11 1018.8 1018.9 0.0
28/01:30pm 13.5 8.7 5.7 59 3.7 W 20 32 11 17 1019.0 1019.1 0.0
28/01:00pm 13.3 8.6 6.2 62 3.4 WNW 20 28 11 15 1019.3 1019.4 0.0
28/12:30pm 13.3 8.6 6.2 62 3.4 WNW 20 30 11 16 1019.4 1019.5 0.0
28/12:00pm 12.9 8.9 6.5 65 3.0 WNW 17 24 9 13 1019.6 1019.7 0.0
28/11:30am 12.8 8.5 6.8 67 2.9 WNW 19 28 10 15 1019.5 1019.6 0.0
28/11:00am 11.7 7.6 6.4 70 2.5 WNW 17 26 9 14 1019.5 1019.6 0.0
28/10:30am 11.5 8.0 7.0 74 2.1 WNW 15 22 8 12 1019.3 1019.4 0.0
28/10:00am 10.4 6.0 6.5 77 1.8 WNW 19 30 10 16 1019.2 1019.3 0.0
28/09:30am 10.2 6.2 6.5 78 1.7 WNW 17 24 9 13 1018.9 1019.0 0.0
28/09:00am 10.2 5.6 6.7 79 1.6 WNW 20 28 11 15 1018.5 1018.6 5.6
28/08:30am 9.7 5.7 6.8 82 1.4 WNW 17 26 9 14 1018.3 1018.4 5.6
28/08:00am 9.0 4.9 6.1 82 1.3 WNW 17 26 9 14 1018.0 1018.1 5.6
28/07:30am 9.2 5.1 6.3 82 1.3 W 17 24 9 13 1017.5 1017.6 5.6
28/07:00am 9.4 5.4 6.5 82 1.3 WNW 17 24 9 13 1016.9 1017.0 5.6
28/06:30am 9.0 5.2 5.9 81 1.4 WNW 15 22 8 12 1016.5 1016.5 5.6
28/06:00am 9.1 5.4 6.4 83 1.2 WNW 15 19 8 10 1016.1 1016.1 5.6
28/05:30am 9.2 5.5 6.5 83 1.3 WNW 15 20 8 11 1016.0 1016.0 5.6
28/05:00am 8.9 5.5 6.0 82 1.3 WNW 13 19 7 10 1015.6 1015.6 5.6
28/04:30am 9.3 5.6 6.2 81 1.4 WNW 15 22 8 12 1015.1 1015.1 5.6
28/04:00am 9.5 5.4 6.2 80 1.5 WNW 17 28 9 15 1014.7 1014.7 5.6
28/03:30am 10.0 6.3 6.3 78 1.7 WNW 15 24 8 13 1014.4 1014.4 5.6
28/03:00am 10.5 6.0 7.0 79 1.7 WNW 20 28 11 15 1014.3 1014.3 5.6
28/02:30am 10.5 6.4 7.7 83 1.3 WNW 19 26 10 14 1013.9 1013.9 5.6
28/02:00am 10.1 6.8 7.9 86 1.1 NW 15 20 8 11 1013.6 1013.6 5.6
28/01:30am 10.1 7.6 8.0 87 1.0 NW 11 15 6 8 1013.4 1013.4 5.6
28/01:00am 10.2 7.3 8.1 87 1.0 NW 13 20 7 11 1013.2 1013.2 5.6
28/12:30am 10.4 5.8 8.2 86 1.1 WNW 22 35 12 19 1013.3 1013.3 5.6
28/12:21am 10.5 6.5 8.3 86 1.1 WNW 19 26 10 14 1013.6 1013.6 5.4
28/12:08am 10.6 4.8 7.8 83 1.4 NNW 28 43 15 23 1012.8 1012.8 5.0
28/12:00am 10.8 4.5 7.5 80 1.6 NNW 30 43 16 23 1012.7 1012.7 4.6
 
Date/Time
EST
Temp
°C
App
Temp
°C
Dew
Point
°C
Rel
Hum
%
Delta-T
°C
Wind Press
QNH
hPa
Press
MSL
hPa
Rain since
9am
mm
Dir  Spd
km/h
Gust
km/h
Spd
kts
Gust
kts
27/11:30pm 11.5 4.8 7.2 75 2.1 N 32 44 17 24 1012.2 1012.2 4.2
27/11:00pm 11.2 6.2 7.9 80 1.6 N 24 33 13 18 1012.8 1012.8 4.2
27/10:30pm 11.7 5.9 7.8 77 1.9 NNW 28 43 15 23 1012.9 1012.9 3.4
27/10:00pm 10.9 5.1 8.0 82 1.4 N 28 43 15 23 1013.0 1013.0 2.4
27/09:30pm 11.5 6.3 7.4 76 2.0 N 24 30 13 16 1013.5 1013.5 1.0
27/09:00pm 11.4 5.1 7.5 77 1.9 N 30 39 16 21 1012.6 1012.6 0.6
27/08:30pm 11.6 4.8 6.7 72 2.3 N 32 43 17 23 1013.3 1013.3 0.2
27/08:00pm 12.7 6.2 6.5 66 3.0 N 30 43 16 23 1014.3 1014.3 0.0
27/07:30pm 12.4 6.7 6.5 67 2.8 N 26 33 14 18 1014.8 1014.8 0.0
27/07:00pm 12.3 6.0 5.9 65 3.0 N 28 33 15 18 1014.7 1014.7 0.0
27/06:30pm 11.8 6.6 5.7 66 2.8 N 22 30 12 16 1014.3 1014.3 0.0
27/06:00pm 11.7 6.5 5.3 65 2.9 N 22 30 12 16 1015.2 1015.2 0.0
27/05:30pm 12.3 6.8 5.7 64 3.1 N 24 30 13 16 1015.7 1015.7 0.0
27/05:00pm 12.6 7.8 5.5 62 3.3 N 20 30 11 16 1016.1 1016.1 0.0
27/04:30pm 13.0 7.1 5.7 61 3.4 N 26 39 14 21 1015.7 1015.7 0.0
27/04:00pm 13.2 7.3 5.6 60 3.6 NNW 26 39 14 21 1016.0 1016.0 0.0
27/03:30pm 13.2 4.8 5.4 59 3.6 N 39 54 21 29 1015.2 1015.2 0.0
27/03:19pm 13.6 5.6 5.5 58 3.8 N 37 56 20 30 1015.3 1015.3 0.0
27/03:00pm 13.8 6.5 5.4 57 3.9 N 33 44 18 24 1015.2 1015.2 0.0
27/02:30pm 13.4 5.0 5.6 59 3.7 N 39 52 21 28 1015.6 1015.6 0.0
27/02:00pm 14.7 7.4 5.5 54 4.4 N 33 44 18 24 1016.5 1016.5 0.0
27/01:42pm 14.3 5.4 5.1 54 4.3 N 41 61 22 33 1016.4 1016.4 0.0
27/01:30pm 14.3 6.5 5.1 54 4.3 N 35 52 19 28 1016.8 1016.9 0.0
27/01:00pm 13.7 6.6 5.3 57 3.9 N 32 44 17 24 1018.0 1018.1 0.0
27/12:32pm 13.2 6.9 5.6 60 3.6 N 28 46 15 25 1019.2 1019.3 0.0
27/12:30pm 13.1 6.1 5.8 61 3.4 N 32 46 17 25 1019.3 1019.4 0.0
27/12:00pm 13.3 4.9 5.7 60 3.6 N 39 54 21 29 1019.8 1019.9 0.0
27/11:30am 12.6 6.4 6.2 65 3.0 N 28 37 15 20 1020.6 1020.7 0.0
27/11:00am 10.9 4.5 5.4 69 2.5 N 28 41 15 22 1021.2 1021.3 0.0
27/10:30am 10.4 4.4 5.4 71 2.3 N 26 32 14 17 1021.6 1021.7 0.0
27/10:00am 9.3 4.1 5.7 78 1.6 N 22 28 12 15 1021.8 1021.9 0.0
27/09:30am 8.1 3.7 5.0 81 1.4 N 17 20 9 11 1021.9 1022.0 0.0
27/09:00am 7.7 3.0 5.3 85 1.1 N 19 24 10 13 1022.1 1022.2 1.6
27/08:30am 7.1 3.3 5.7 91 0.6 N 15 20 8 11 1022.3 1022.4 1.6
27/08:00am 6.4 2.5 5.5 94 0.4 N 15 20 8 11 1022.3 1022.4 1.6
27/07:30am 5.0 0.5 4.1 94 0.4 N 17 19 9 10 1022.6 1022.7 1.6
27/07:00am 5.6 2.0 4.9 95 0.3 NNW 13 15 7 8 1022.4 1022.5 1.6
27/06:30am 4.2 1.0 3.3 94 0.4 N 9 11 5 6 1021.7 1021.8 1.6
27/06:00am 5.0 1.3 4.3 95 0.3 N 13 15 7 8 1021.7 1021.8 1.6
27/05:30am 5.2 1.5 4.5 95 0.3 N 13 15 7 8 1021.8 1021.9 1.6
27/05:00am 5.5 2.2 4.8 95 0.3 N 11 13 6 7 1022.0 1022.1 1.6
27/04:30am 5.1 1.8 4.4 95 0.3 N 11 13 6 7 1022.1 1022.2 1.6
27/04:00am 5.4 2.5 4.7 95 0.3 N 9 11 5 6 1022.3 1022.4 1.6
27/03:30am 5.4 2.1 4.7 95 0.3 N 11 13 6 7 1022.4 1022.5 1.6
27/03:00am 5.9 3.1 5.3 96 0.3 N 9 11 5 6 1022.9 1023.0 1.6
27/02:30am 5.2 1.9 4.5 95 0.3 N 11 13 6 7 1023.0 1023.1 1.6
27/02:00am 5.7 2.4 4.8 94 0.4 N 11 13 6 7 1023.3 1023.4 1.6
27/01:30am 6.2 3.0 5.3 94 0.4 N 11 13 6 7 1023.4 1023.5 1.6
27/01:00am 6.4 3.7 5.7 95 0.3 N 9 11 5 6 1023.5 1023.6 1.6
27/12:30am 6.6 4.3 5.7 94 0.4 N 7 9 4 5 1023.7 1023.8 1.6
27/12:00am 7.8 5.0 7.1 95 0.3 NNW 11 13 6 7 1024.0 1024.1 1.6
 
Date/Time
EST
Temp
°C
App
Temp
°C
Dew
Point
°C
Rel
Hum
%
Delta-T
°C
Wind Press
QNH
hPa
Press
MSL
hPa
Rain since
9am
mm
Dir  Spd
km/h
Gust
km/h
Spd
kts
Gust
kts
26/11:30pm 7.8 5.0 7.1 95 0.3 NNW 11 13 6 7 1024.1 1024.2 1.6
26/11:00pm 7.6 4.8 7.0 96 0.3 NNW 11 15 6 8 1023.8 1023.9 1.6
26/10:30pm 5.8 3.5 4.8 93 0.4 N 6 7 3 4 1023.7 1023.8 1.6
26/10:00pm 6.7 4.4 5.7 93 0.4 N 7 9 4 5 1023.5 1023.6 1.6
26/09:30pm 6.9 4.6 5.7 92 0.5 N 7 9 4 5 1023.4 1023.5 1.6
26/09:00pm 6.6 3.8 5.2 91 0.6 N 9 11 5 6 1023.2 1023.3 1.6
26/08:30pm 6.5 4.2 4.8 89 0.7 N 6 7 3 4 1023.2 1023.3 1.6
26/08:00pm 7.8 5.2 6.1 89 0.8 N 9 9 5 5 1023.0 1023.1 1.6
26/07:30pm 7.8 5.5 5.8 87 0.9 NNW 7 9 4 5 1023.0 1023.1 1.6
26/07:00pm 7.9 5.6 5.7 86 1.0 N 7 9 4 5 1022.7 1022.8 1.6
26/06:30pm 9.2 7.6 6.3 82 1.3 WNW 4 7 2 4 1022.3 1022.4 1.6
26/06:00pm 10.3 9.7 7.2 81 1.5 CALM 0 0 0 0 1021.9 1022.0 1.6
26/05:30pm 10.2 8.2 6.9 80 1.6 S 7 13 4 7 1021.6 1021.7 1.6
26/05:00pm 10.7 6.7 6.8 77 1.8 SSW 17 26 9 14 1021.3 1021.4 1.6
26/04:30pm 11.9 9.3 7.8 76 2.0 SW 11 15 6 8 1021.0 1021.1 1.6
26/04:00pm 12.5 10.0 8.4 76 2.0 SW 11 15 6 8 1020.7 1020.8 1.6
26/03:30pm 12.2 8.8 7.5 73 2.3 SW 15 22 8 12 1020.4 1020.5 1.6
26/03:00pm 12.6 9.4 8.5 76 2.0 SW 15 20 8 11 1020.0 1020.1 1.6
26/02:30pm 12.6 9.9 9.1 79 1.8 WSW 13 20 7 11 1019.5 1019.6 1.6
26/02:00pm 12.4 9.5 9.8 84 1.3 WSW 15 19 8 10 1019.3 1019.4 1.6
26/01:30pm 11.8 8.5 9.5 86 1.2 WSW 17 20 9 11 1019.0 1019.1 1.6
26/01:00pm 11.2 8.2 9.1 87 1.0 W 15 20 8 11 1018.8 1018.9 1.6
26/12:43pm 10.3 6.5 7.7 84 1.2 W 17 24 9 13 1018.8 1018.9 1.6
26/12:30pm 9.9 4.2 6.6 80 1.5 WSW 26 48 14 26 1018.7 1018.8 1.4
26/12:26pm 9.6 3.0 6.0 78 1.7 WSW 30 48 16 26 1018.8 1018.9 1.4
26/12:24pm 9.8 2.8 5.8 76 1.8 WSW 32 48 17 26 1018.8 1018.9 1.2
26/12:00pm 14.0 8.7 8.4 69 2.8 W 26 41 14 22 1018.1 1018.2 0.0
26/11:30am 13.4 8.0 7.8 69 2.8 W 26 39 14 21 1018.2 1018.3 0.0
26/11:00am 13.3 8.0 8.4 72 2.4 WNW 26 39 14 21 1018.1 1018.2 0.0
26/10:30am 13.0 8.1 8.5 74 2.2 WNW 24 39 13 21 1017.9 1018.0 0.0
26/10:00am 12.5 7.4 7.8 73 2.3 WNW 24 35 13 19 1017.5 1017.6 0.0
26/09:30am 12.3 7.2 7.8 74 2.2 WNW 24 35 13 19 1017.2 1017.3 0.0
26/09:00am 12.1 6.9 7.4 73 2.3 WNW 24 37 13 20 1016.4 1016.4 1.2
26/08:30am 11.9 7.1 7.4 74 2.2 WNW 22 35 12 19 1016.0 1016.0 1.2
26/08:00am 11.7 7.3 7.2 74 2.2 WNW 20 32 11 17 1015.7 1015.7 1.2
26/07:30am 11.8 7.5 7.1 73 2.3 WNW 19 39 10 21 1015.5 1015.5 1.2
26/07:00am 11.9 7.5 7.2 73 2.3 WNW 20 28 11 15 1014.9 1014.9 1.2
26/06:30am 11.7 7.7 6.8 72 2.3 WNW 17 24 9 13 1014.3 1014.3 1.2
26/06:00am 11.7 7.7 6.8 72 2.3 NW 17 22 9 12 1014.0 1014.0 1.2
26/05:30am 11.3 6.7 6.4 72 2.3 NW 20 30 11 16 1013.5 1013.5 1.2
26/05:00am 12.1 7.6 5.9 66 2.9 NW 19 30 10 16 1013.2 1013.2 1.0
26/04:30am 12.2 7.4 5.8 65 3.0 NW 20 32 11 17 1013.1 1013.1 1.0
26/04:00am 12.0 6.8 5.6 65 3.0 NW 22 33 12 18 1012.8 1012.8 1.0
26/03:30am 12.3 6.3 5.5 63 3.2 NW 26 41 14 22 1012.9 1012.9 1.0
26/03:00am 12.0 6.8 5.4 64 3.1 NW 22 32 12 17 1012.8 1012.8 1.0
26/02:30am 12.5 7.0 5.7 63 3.2 NW 24 35 13 19 1013.0 1013.0 1.0
26/02:00am 12.6 7.1 5.8 63 3.2 NW 24 32 13 17 1013.0 1013.0 1.0
26/01:30am 12.4 7.3 6.0 65 3.0 NW 22 32 12 17 1013.0 1013.0 1.0
26/01:00am 12.2 7.1 5.8 65 3.0 NW 22 32 12 17 1013.1 1013.1 1.0
26/12:30am 12.3 7.2 6.1 66 2.9 NW 22 35 12 19 1013.0 1013.0 1.0
26/12:00am 11.9 7.2 6.0 67 2.8 NW 20 30 11 16 1013.2 1013.2 1.0
 
Date/Time
EST
Temp
°C
App
Temp
°C
Dew
Point
°C
Rel
Hum
%
Delta-T
°C
Wind Press
QNH
hPa
Press
MSL
hPa
Rain since
9am
mm
Dir  Spd
km/h
Gust
km/h
Spd
kts
Gust
kts
25/11:30pm 12.4 7.9 6.2 66 2.9 NW 19 26 10 14 1013.0 1013.0 1.0
25/11:00pm 12.3 8.2 6.1 66 2.9 NW 17 22 9 12 1013.0 1013.0 1.0
25/10:30pm 12.5 8.0 6.3 66 2.9 NW 19 28 10 15 1012.8 1012.8 1.0
25/10:00pm 12.9 7.5 6.3 64 3.1 NW 24 39 13 21 1012.9 1012.9 1.0
25/09:30pm 12.8 7.7 6.2 64 3.1 NW 22 32 12 17 1012.8 1012.8 1.0
25/09:00pm 13.7 9.4 7.0 64 3.3 NW 19 33 10 18 1012.7 1012.7 1.0
25/08:30pm 13.4 10.0 7.6 68 2.8 NW 15 24 8 13 1012.4 1012.4 1.0
25/08:00pm 13.4 9.4 8.3 71 2.5 NW 19 39 10 21 1012.4 1012.4 1.0
25/07:30pm 12.7 9.5 8.6 76 2.0 NW 15 22 8 12 1012.4 1012.4 1.0
25/07:00pm 11.7 9.4 9.1 84 1.3 NNW 11 15 6 8 1012.3 1012.3 1.0

Other Formats:

Comma delimited format used in spreadsheet applications
http://www.bom.gov.au/fwo/IDV60801/IDV60801.94870.axf

JavaScript Object Notation format (JSON) in row-major order
http://www.bom.gov.au/fwo/IDV60801/IDV60801.94870.json